createdAt,value
2022-10-13T00:00:16.243Z,13.18
2022-10-13T00:02:44.619Z,13.22
2022-10-13T00:05:14.344Z,13.19
2022-10-13T00:07:42.716Z,13.18
2022-10-13T00:10:13.398Z,13.15
2022-10-13T00:12:41.505Z,13.20
2022-10-13T00:15:10.983Z,13.16
2022-10-13T00:17:39.266Z,13.19
2022-10-13T00:20:08.895Z,13.13
2022-10-13T00:22:38.712Z,13.06
2022-10-13T00:25:09.886Z,13.09
2022-10-13T00:27:39.225Z,13.13
2022-10-13T00:30:10.733Z,13.11
2022-10-13T00:32:39.205Z,13.10
2022-10-13T00:35:07.766Z,13.07
2022-10-13T00:37:35.889Z,13.02
2022-10-13T00:40:07.032Z,13.05
2022-10-13T00:42:35.135Z,13.05
2022-10-13T00:45:08.222Z,13.10
2022-10-13T00:47:41.649Z,13.10
2022-10-13T00:50:13.218Z,13.05
2022-10-13T00:52:43.844Z,13.14
2022-10-13T00:55:18.113Z,13.19
2022-10-13T00:57:54.733Z,13.21
2022-10-13T01:00:24.571Z,13.20
2022-10-13T01:02:53.346Z,13.26
2022-10-13T01:05:23.177Z,13.30
2022-10-13T01:07:52.366Z,13.32
2022-10-13T01:10:31.181Z,13.26
2022-10-13T01:13:05.193Z,13.25
2022-10-13T01:15:39.926Z,13.27
2022-10-13T01:18:17.733Z,13.30
2022-10-13T01:20:58.975Z,13.35
2022-10-13T01:24:14.552Z,13.36
2022-10-13T01:27:05.232Z,13.40
2022-10-13T01:30:07.059Z,13.41
2022-10-13T01:32:52.102Z,13.45
2022-10-13T01:35:27.102Z,13.44
2022-10-13T01:37:59.174Z,13.32
2022-10-13T01:40:33.510Z,13.46
2022-10-13T01:43:06.405Z,13.43
2022-10-13T01:45:41.671Z,13.45
2022-10-13T01:48:11.956Z,13.46
2022-10-13T01:50:41.047Z,13.43
2022-10-13T01:53:12.181Z,13.40
2022-10-13T01:55:51.447Z,13.40
2022-10-13T01:58:19.824Z,13.41
2022-10-13T02:01:01.537Z,13.44
2022-10-13T02:03:41.286Z,13.42
2022-10-13T02:06:20.704Z,13.42
2022-10-13T02:08:58.182Z,13.40
2022-10-13T02:11:26.645Z,13.45
2022-10-13T02:14:01.303Z,13.42
2022-10-13T02:16:35.400Z,13.37
2022-10-13T02:19:07.111Z,13.32
2022-10-13T02:21:35.843Z,13.38
2022-10-13T02:24:04.920Z,13.36
2022-10-13T02:26:34.824Z,13.31
2022-10-13T02:29:10.037Z,13.30
2022-10-13T02:31:43.933Z,13.35
2022-10-13T02:34:12.972Z,13.27
2022-10-13T02:36:41.882Z,13.30
2022-10-13T02:39:11.270Z,13.31
2022-10-13T02:41:41.462Z,13.26
2022-10-13T02:44:09.788Z,13.34
2022-10-13T02:46:39.861Z,13.36
2022-10-13T02:49:08.225Z,13.34
2022-10-13T02:51:40.087Z,13.36
2022-10-13T02:54:09.015Z,13.34
2022-10-13T02:56:40.985Z,13.36
2022-10-13T02:59:09.102Z,13.35
2022-10-13T03:01:41.441Z,13.33
2022-10-13T03:04:11.493Z,13.35
2022-10-13T03:06:39.916Z,13.39
2022-10-13T03:09:09.215Z,13.41
2022-10-13T03:11:37.309Z,13.40
2022-10-13T03:14:05.585Z,13.44
2022-10-13T03:16:34.095Z,13.41
2022-10-13T03:19:02.507Z,13.43
2022-10-13T03:21:32.350Z,13.41
2022-10-13T03:24:00.547Z,13.47
2022-10-13T03:26:28.986Z,13.39
2022-10-13T03:28:57.130Z,13.41
2022-10-13T03:31:25.486Z,13.36
2022-10-13T03:33:53.840Z,13.34
2022-10-13T03:36:22.009Z,13.34
2022-10-13T03:38:51.718Z,13.32
2022-10-13T03:41:20.706Z,13.34
2022-10-13T03:43:48.929Z,13.32
2022-10-13T03:46:19.444Z,13.32
2022-10-13T03:48:48.529Z,13.31
2022-10-13T03:51:19.775Z,13.32
2022-10-13T03:53:48.979Z,13.32
2022-10-13T03:56:20.730Z,13.33
2022-10-13T03:58:53.868Z,13.32
2022-10-13T04:01:22.446Z,13.34
2022-10-13T04:03:51.552Z,13.07
2022-10-13T04:06:20.009Z,13.37
2022-10-13T04:08:48.496Z,13.36
2022-10-13T04:11:18.829Z,13.36
2022-10-13T04:13:47.495Z,13.34
2022-10-13T04:16:17.597Z,13.33
2022-10-13T04:18:46.259Z,13.28
2022-10-13T04:21:16.343Z,13.26
2022-10-13T04:23:44.325Z,13.16
2022-10-13T04:26:19.625Z,13.21
2022-10-13T04:28:49.048Z,13.17
2022-10-13T04:31:18.057Z,13.16
2022-10-13T04:33:46.916Z,13.16
2022-10-13T04:36:16.588Z,13.07
2022-10-13T04:38:45.395Z,13.12
2022-10-13T04:41:14.714Z,13.10
2022-10-13T04:43:44.660Z,13.09
2022-10-13T04:46:17.012Z,13.07
2022-10-13T04:48:45.170Z,13.04
2022-10-13T04:51:15.235Z,13.06
2022-10-13T04:53:43.566Z,13.02
2022-10-13T04:56:13.804Z,13.01
2022-10-13T04:58:46.381Z,13.02
2022-10-13T05:01:22.277Z,12.96
2022-10-13T05:03:53.032Z,12.94
2022-10-13T05:06:23.711Z,12.97
2022-10-13T05:08:52.379Z,12.99
2022-10-13T05:11:20.949Z,13.05
2022-10-13T05:13:50.622Z,13.04
2022-10-13T05:16:21.351Z,13.09
2022-10-13T05:18:49.986Z,13.02
2022-10-13T05:21:20.430Z,13.06
2022-10-13T05:23:48.717Z,13.04
2022-10-13T05:26:18.703Z,13.06
2022-10-13T05:28:47.555Z,13.06
2022-10-13T05:31:19.288Z,13.10
2022-10-13T05:33:47.997Z,13.11
2022-10-13T05:36:17.831Z,13.16
2022-10-13T05:38:47.401Z,13.13
2022-10-13T05:41:16.167Z,13.14
2022-10-13T05:43:44.682Z,13.11
2022-10-13T05:46:13.188Z,13.07
2022-10-13T05:48:45.762Z,13.02
2022-10-13T05:51:18.257Z,13.08
2022-10-13T05:53:55.336Z,13.08
2022-10-13T05:56:31.698Z,13.07
2022-10-13T05:59:04.073Z,13.10
2022-10-13T06:01:35.874Z,13.09
2022-10-13T06:04:09.907Z,13.11
2022-10-13T06:06:38.342Z,13.06
2022-10-13T06:09:06.616Z,13.09
2022-10-13T06:11:34.763Z,13.06
2022-10-13T06:14:03.712Z,13.09
2022-10-13T06:16:31.900Z,13.08
2022-10-13T06:18:59.980Z,13.07
2022-10-13T06:21:29.596Z,13.04
2022-10-13T06:23:58.869Z,12.97
2022-10-13T06:26:26.970Z,12.98
2022-10-13T06:28:59.294Z,12.95
2022-10-13T06:31:28.339Z,13.00
2022-10-13T06:33:56.879Z,13.00
2022-10-13T06:36:25.250Z,13.05
2022-10-13T06:38:55.040Z,13.02
2022-10-13T06:41:23.600Z,13.05
2022-10-13T06:43:51.773Z,13.05
2022-10-13T06:46:20.718Z,13.07
2022-10-13T06:48:51.388Z,13.13
2022-10-13T06:51:19.629Z,13.08
2022-10-13T06:53:47.787Z,13.10
2022-10-13T06:56:17.365Z,13.10
2022-10-13T06:58:46.349Z,13.12
2022-10-13T07:01:15.221Z,13.09
2022-10-13T07:03:43.867Z,13.16
2022-10-13T07:06:19.797Z,13.15
2022-10-13T07:08:50.149Z,13.18
2022-10-13T07:11:19.847Z,13.19
2022-10-13T07:13:48.040Z,13.18
2022-10-13T07:16:16.844Z,13.17
2022-10-13T07:18:45.247Z,13.16
2022-10-13T07:21:13.439Z,13.15
2022-10-13T07:23:42.095Z,13.18
2022-10-13T07:26:12.126Z,13.24
2022-10-13T07:28:41.800Z,13.16
2022-10-13T07:31:13.822Z,13.16
2022-10-13T07:33:42.780Z,13.16
2022-10-13T07:36:11.968Z,13.15
2022-10-13T07:38:40.398Z,13.20
2022-10-13T07:41:10.914Z,13.19
2022-10-13T07:43:39.017Z,13.23
2022-10-13T07:46:09.951Z,13.21
2022-10-13T07:48:38.320Z,13.19
2022-10-13T07:51:08.279Z,13.25
2022-10-13T07:53:36.985Z,13.29
2022-10-13T07:56:07.887Z,13.33
2022-10-13T07:58:39.046Z,13.34
2022-10-13T08:01:09.846Z,13.33
2022-10-13T08:03:39.429Z,13.34
2022-10-13T08:06:11.081Z,13.40
2022-10-13T08:08:40.338Z,13.43
2022-10-13T08:11:12.383Z,13.45
2022-10-13T08:13:44.393Z,13.45
2022-10-13T08:16:14.181Z,13.46
2022-10-13T08:18:42.278Z,13.51
2022-10-13T08:24:02.579Z,13.61
2022-10-13T08:26:31.290Z,13.54
2022-10-13T08:34:23.292Z,13.71
2022-10-13T08:36:56.839Z,13.71
2022-10-13T08:39:26.496Z,13.71
2022-10-13T08:41:57.557Z,13.76
2022-10-13T08:45:06.215Z,13.66
2022-10-13T08:47:43.537Z,13.68
2022-10-13T08:50:15.409Z,13.81
2022-10-13T08:52:50.339Z,13.83
2022-10-13T08:55:29.516Z,13.86
2022-10-13T08:57:58.326Z,13.81
2022-10-13T09:00:26.604Z,13.94
2022-10-13T09:03:03.545Z,13.88
2022-10-13T09:05:39.787Z,13.89
2022-10-13T09:08:17.867Z,13.87
2022-10-13T09:10:50.425Z,13.97
2022-10-13T09:13:19.607Z,14.03
2022-10-13T09:15:50.481Z,13.96
2022-10-13T09:18:20.544Z,14.02
2022-10-13T09:20:48.822Z,14.03
2022-10-13T09:23:21.131Z,14.05
2022-10-13T09:25:51.065Z,14.18
2022-10-13T09:28:23.049Z,14.13
2022-10-13T09:31:03.777Z,14.20
2022-10-13T09:33:37.059Z,14.29
2022-10-13T09:36:12.431Z,14.37
2022-10-13T09:38:45.732Z,14.42
2022-10-13T09:41:18.715Z,14.33
2022-10-13T09:44:01.292Z,14.35
2022-10-13T09:46:35.150Z,14.28
2022-10-13T09:49:08.298Z,14.47
2022-10-13T09:51:40.209Z,14.59
2022-10-13T09:54:26.098Z,14.49
2022-10-13T09:57:00.294Z,14.49
2022-10-13T09:59:36.759Z,14.40
2022-10-13T10:02:29.930Z,14.29
2022-10-13T10:05:05.733Z,14.32
2022-10-13T10:07:35.381Z,14.28
2022-10-13T10:10:14.697Z,14.25
2022-10-13T10:12:44.610Z,14.23
2022-10-13T10:15:33.453Z,14.21
2022-10-13T10:18:08.383Z,14.39
2022-10-13T10:21:01.934Z,14.42
2022-10-13T10:23:44.056Z,14.47
2022-10-13T10:26:22.243Z,14.51
2022-10-13T10:29:03.365Z,14.56
2022-10-13T10:31:44.952Z,14.54
2022-10-13T10:34:32.448Z,14.53
2022-10-13T10:37:14.793Z,14.52
2022-10-13T10:39:49.196Z,14.57
2022-10-13T10:43:00.619Z,14.56
2022-10-13T10:45:35.802Z,14.69
2022-10-13T10:48:12.861Z,14.75
2022-10-13T10:50:41.972Z,14.76
2022-10-13T10:53:21.824Z,14.55
2022-10-13T10:55:55.623Z,14.86
2022-10-13T10:58:33.220Z,14.87
2022-10-13T11:01:15.524Z,14.76
2022-10-13T11:03:52.100Z,14.72
2022-10-13T11:06:26.441Z,14.84
2022-10-13T11:08:56.659Z,14.84
2022-10-13T11:11:45.897Z,14.82
2022-10-13T11:14:38.086Z,14.64
2022-10-13T11:17:20.636Z,14.69
2022-10-13T11:19:50.269Z,14.76
2022-10-13T11:22:20.905Z,14.76
2022-10-13T11:24:56.392Z,14.57
2022-10-13T11:27:39.046Z,14.67
2022-10-13T11:30:31.098Z,14.64
2022-10-13T11:32:59.293Z,14.68
2022-10-13T11:35:29.814Z,14.66
2022-10-13T11:38:32.222Z,14.68
2022-10-13T11:41:17.104Z,14.72
2022-10-13T11:43:56.058Z,14.70
2022-10-13T11:46:32.720Z,14.65
2022-10-13T11:49:36.745Z,14.70
2022-10-13T11:52:45.990Z,14.72
2022-10-13T11:55:19.586Z,14.78
2022-10-13T11:57:49.170Z,14.73
2022-10-13T12:00:19.718Z,14.81
2022-10-13T12:02:53.553Z,14.80
2022-10-13T12:05:24.839Z,14.77
2022-10-13T12:07:56.124Z,14.69
2022-10-13T12:10:31.003Z,14.71
2022-10-13T12:13:01.921Z,14.71
2022-10-13T12:15:33.913Z,14.72
2022-10-13T12:18:02.950Z,14.73
2022-10-13T12:20:33.031Z,14.71
2022-10-13T12:23:01.203Z,14.67
2022-10-13T12:25:31.480Z,14.77
2022-10-13T12:28:02.170Z,14.70
2022-10-13T12:30:36.037Z,14.81
2022-10-13T12:33:06.319Z,14.80
2022-10-13T12:35:35.859Z,14.79
2022-10-13T12:38:08.663Z,14.84
2022-10-13T12:40:37.190Z,14.75
2022-10-13T12:43:07.054Z,14.79
2022-10-13T12:45:36.678Z,14.83
2022-10-13T12:48:05.273Z,14.79
2022-10-13T12:50:39.376Z,14.88
2022-10-13T12:53:15.577Z,14.96
2022-10-13T12:56:01.672Z,14.85
2022-10-13T12:58:34.138Z,14.86
2022-10-13T13:01:27.475Z,14.89
2022-10-13T13:03:57.571Z,14.90
2022-10-13T13:06:35.003Z,14.82
2022-10-13T13:09:28.420Z,14.96
2022-10-13T13:12:22.193Z,14.85
2022-10-13T13:14:56.841Z,14.88
2022-10-13T13:17:56.567Z,14.75
2022-10-13T13:20:21.799Z,14.81
2022-10-13T13:22:51.068Z,14.95
2022-10-13T13:25:19.441Z,14.93
2022-10-13T13:27:48.110Z,14.89
2022-10-13T13:30:20.558Z,14.98
2022-10-13T13:32:49.996Z,15.01
2022-10-13T13:35:18.919Z,14.97
2022-10-13T13:37:50.127Z,14.94
2022-10-13T13:40:20.752Z,14.86
2022-10-13T13:42:48.980Z,14.85
2022-10-13T13:45:20.594Z,14.88
2022-10-13T13:47:49.734Z,14.85
2022-10-13T13:50:21.956Z,14.83
2022-10-13T13:52:50.380Z,14.83
2022-10-13T13:55:19.326Z,14.76
2022-10-13T13:57:47.793Z,14.67
2022-10-13T14:00:21.489Z,14.65
2022-10-13T14:02:50.130Z,14.57
2022-10-13T14:05:18.969Z,14.58
2022-10-13T14:07:47.058Z,14.69
2022-10-13T14:10:15.624Z,14.73
2022-10-13T14:12:44.661Z,14.81
2022-10-13T14:15:12.943Z,14.57
2022-10-13T14:17:43.376Z,14.60
2022-10-13T14:20:15.100Z,14.59
2022-10-13T14:22:43.408Z,14.54
2022-10-13T14:25:12.149Z,14.56
2022-10-13T14:27:40.369Z,14.56
2022-10-13T14:30:11.351Z,14.60
2022-10-13T14:32:40.113Z,14.63
2022-10-13T14:35:10.349Z,14.67
2022-10-13T14:37:39.128Z,14.71
2022-10-13T14:40:08.672Z,14.66
2022-10-13T14:42:36.886Z,14.63
2022-10-13T14:45:06.746Z,14.58
2022-10-13T14:47:35.092Z,14.54
2022-10-13T14:50:03.473Z,14.57
2022-10-13T14:52:33.435Z,14.58
2022-10-13T14:55:01.605Z,14.59
2022-10-13T14:57:30.009Z,14.56
2022-10-13T15:00:01.850Z,14.60
2022-10-13T15:02:31.266Z,14.61
2022-10-13T15:04:59.965Z,14.61
2022-10-13T15:07:28.231Z,14.48
2022-10-13T15:10:05.317Z,14.50
2022-10-13T15:12:34.261Z,14.46
2022-10-13T15:15:02.874Z,14.50
2022-10-13T15:17:33.516Z,14.56
2022-10-13T15:20:01.822Z,14.50
2022-10-13T15:22:30.534Z,14.47
2022-10-13T15:24:59.961Z,14.34
2022-10-13T15:27:28.126Z,14.35
2022-10-13T15:29:56.659Z,14.36
2022-10-13T15:32:25.265Z,14.48
2022-10-13T15:34:54.537Z,14.36
2022-10-13T15:37:23.085Z,14.38
2022-10-13T15:39:56.912Z,14.26
2022-10-13T15:42:27.354Z,14.19
2022-10-13T15:45:11.684Z,14.20
2022-10-13T15:47:40.610Z,14.12
2022-10-13T15:50:10.123Z,14.09
2022-10-13T15:52:45.914Z,13.96
2022-10-13T15:55:14.116Z,14.02
2022-10-13T15:57:43.709Z,14.09
2022-10-13T16:00:14.373Z,14.10
2022-10-13T16:02:43.379Z,14.09
2022-10-13T16:05:13.862Z,14.03
2022-10-13T16:07:42.255Z,14.04
2022-10-13T16:10:12.606Z,14.05
2022-10-13T16:12:48.528Z,14.05
2022-10-13T16:15:20.135Z,13.97
2022-10-13T16:17:48.419Z,13.96
2022-10-13T16:20:16.498Z,14.03
2022-10-13T16:22:44.792Z,13.99
2022-10-13T16:25:13.332Z,13.87
2022-10-13T16:27:44.302Z,13.96
2022-10-13T16:30:13.418Z,13.85
2022-10-13T16:32:43.637Z,13.89
2022-10-13T16:35:11.963Z,13.88
2022-10-13T16:37:40.120Z,13.94
2022-10-13T16:40:10.834Z,14.00
2022-10-13T16:42:39.020Z,14.02
2022-10-13T16:45:08.643Z,14.01
2022-10-13T16:47:37.014Z,13.93
2022-10-13T16:50:09.931Z,13.91
2022-10-13T16:52:38.685Z,13.88
2022-10-13T16:55:08.056Z,13.85
2022-10-13T16:57:36.430Z,13.88
2022-10-13T17:00:05.594Z,13.86
2022-10-13T17:02:33.938Z,13.92
2022-10-13T17:05:02.582Z,13.81
2022-10-13T17:07:32.714Z,13.90
2022-10-13T17:10:01.543Z,13.87
2022-10-13T17:12:29.764Z,13.83
2022-10-13T17:15:00.810Z,13.68
2022-10-13T17:17:29.135Z,13.58
2022-10-13T17:19:57.371Z,13.74
2022-10-13T17:22:26.939Z,13.78
2022-10-13T17:24:56.694Z,13.80
2022-10-13T17:27:25.345Z,13.80
2022-10-13T17:29:55.069Z,13.73
2022-10-13T17:32:25.658Z,13.71
2022-10-13T17:34:57.213Z,13.73
2022-10-13T17:37:28.165Z,13.72
2022-10-13T17:39:57.933Z,13.69
2022-10-13T17:42:26.137Z,13.66
2022-10-13T17:44:54.437Z,13.67
2022-10-13T17:47:23.086Z,13.61
2022-10-13T17:49:51.667Z,13.55
2022-10-13T17:52:19.776Z,13.54
2022-10-13T17:54:47.973Z,13.48
2022-10-13T17:57:18.188Z,13.46
2022-10-13T17:59:47.262Z,13.44
2022-10-13T18:02:15.692Z,13.49
2022-10-13T18:04:45.091Z,13.47
2022-10-13T18:07:13.194Z,13.51
2022-10-13T18:09:42.027Z,13.53
2022-10-13T18:12:10.323Z,13.46
2022-10-13T18:14:41.687Z,13.35
2022-10-13T18:17:12.562Z,13.32
2022-10-13T18:19:44.084Z,13.36
2022-10-13T18:22:12.433Z,13.30
2022-10-13T18:24:41.360Z,13.26
2022-10-13T18:27:12.866Z,13.34
2022-10-13T18:29:43.923Z,13.37
2022-10-13T18:32:11.967Z,13.38
2022-10-13T18:34:40.147Z,13.35
2022-10-13T18:37:08.883Z,13.27
2022-10-13T18:39:36.917Z,13.26
2022-10-13T18:42:05.538Z,13.21
2022-10-13T18:44:37.026Z,13.28
2022-10-13T18:47:07.395Z,13.07
2022-10-13T18:49:35.703Z,13.30
2022-10-13T18:52:04.145Z,13.34
2022-10-13T18:54:32.728Z,13.34
2022-10-13T18:57:00.935Z,13.29
2022-10-13T18:59:29.356Z,13.35
2022-10-13T19:01:57.488Z,13.38
2022-10-13T19:04:27.284Z,13.41
2022-10-13T19:06:55.570Z,13.45
2022-10-13T19:09:25.144Z,13.44
2022-10-13T19:11:56.552Z,13.40
2022-10-13T19:14:24.641Z,13.44
2022-10-13T19:16:52.740Z,13.41
2022-10-13T19:19:21.030Z,13.38
2022-10-13T19:21:50.864Z,13.42
2022-10-13T19:24:19.309Z,13.44
2022-10-13T19:26:47.727Z,13.49
2022-10-13T19:29:16.274Z,13.52
2022-10-13T19:31:44.979Z,13.47
2022-10-13T19:34:14.397Z,13.48
2022-10-13T19:36:43.878Z,13.41
2022-10-13T19:39:16.271Z,13.41
2022-10-13T19:41:45.146Z,13.36
2022-10-13T19:44:13.574Z,13.37
2022-10-13T19:46:43.712Z,13.35
2022-10-13T19:49:16.253Z,13.34
2022-10-13T19:51:44.902Z,13.34
2022-10-13T19:54:14.715Z,13.32
2022-10-13T19:56:42.956Z,13.31
2022-10-13T19:59:11.628Z,13.32
2022-10-13T20:01:42.125Z,13.42
2022-10-13T20:04:11.011Z,13.40
2022-10-13T20:06:42.296Z,13.40
2022-10-13T20:09:10.971Z,13.42
2022-10-13T20:11:41.052Z,13.43
2022-10-13T20:14:09.965Z,13.51
2022-10-13T20:16:39.018Z,13.50
2022-10-13T20:19:07.657Z,13.49
2022-10-13T20:21:35.991Z,13.49
2022-10-13T20:24:04.319Z,13.48
2022-10-13T20:26:32.800Z,13.54
2022-10-13T20:29:02.455Z,13.54
2022-10-13T20:31:30.679Z,13.56
2022-10-13T20:34:00.498Z,13.50
2022-10-13T20:36:29.302Z,13.37
2022-10-13T20:38:57.476Z,13.46
2022-10-13T20:41:28.408Z,13.51
2022-10-13T20:43:59.230Z,13.53
2022-10-13T20:46:29.222Z,13.58
2022-10-13T20:49:10.321Z,13.50
2022-10-13T20:51:40.355Z,13.62
2022-10-13T20:54:08.905Z,13.61
2022-10-13T20:56:37.126Z,13.61
2022-10-13T20:59:06.475Z,13.58
2022-10-13T21:01:37.117Z,13.56
2022-10-13T21:04:06.191Z,13.57
2022-10-13T21:06:35.951Z,13.51
2022-10-13T21:09:05.906Z,13.43
2022-10-13T21:11:34.802Z,13.57
2022-10-13T21:14:06.630Z,13.63
2022-10-13T21:16:37.177Z,13.64
2022-10-13T21:19:05.769Z,13.66
2022-10-13T21:21:36.076Z,13.54
2022-10-13T21:24:07.550Z,13.36
2022-10-13T21:26:36.507Z,13.67
2022-10-13T21:29:05.314Z,13.71
2022-10-13T21:31:33.710Z,13.72
2022-10-13T21:34:03.333Z,13.76
2022-10-13T21:36:33.112Z,13.82
2022-10-13T21:39:03.848Z,13.81
2022-10-13T21:41:32.438Z,13.87
2022-10-13T21:44:00.684Z,13.80
2022-10-13T21:46:30.456Z,13.80
2022-10-13T21:49:00.533Z,13.85
2022-10-13T21:51:31.940Z,13.77
2022-10-13T21:54:02.000Z,13.86
2022-10-13T21:56:31.131Z,13.81
2022-10-13T21:58:59.722Z,13.85
2022-10-13T22:01:28.038Z,13.85
2022-10-13T22:03:58.385Z,13.86
2022-10-13T22:06:27.774Z,13.81
2022-10-13T22:09:00.257Z,13.80
2022-10-13T22:11:31.288Z,13.76
2022-10-13T22:14:00.624Z,13.79
2022-10-13T22:16:35.041Z,13.85
2022-10-13T22:19:03.393Z,13.78
2022-10-13T22:21:33.423Z,13.88
2022-10-13T22:24:06.158Z,13.81
2022-10-13T22:26:37.233Z,13.73
2022-10-13T22:29:07.962Z,13.78
2022-10-13T22:31:36.939Z,13.87
2022-10-13T22:34:05.817Z,13.84
2022-10-13T22:36:34.185Z,13.83
2022-10-13T22:39:05.637Z,13.74
2022-10-13T22:41:35.011Z,13.78
2022-10-13T22:44:04.485Z,13.80
2022-10-13T22:46:36.097Z,13.76
2022-10-13T22:49:05.650Z,13.75
2022-10-13T22:51:35.825Z,13.78
2022-10-13T22:54:06.397Z,13.73
2022-10-13T22:56:35.864Z,13.77
2022-10-13T22:59:06.730Z,13.75
2022-10-13T23:01:36.225Z,13.81
2022-10-13T23:04:05.500Z,13.82
2022-10-13T23:06:35.613Z,13.76
2022-10-13T23:09:07.744Z,13.73
2022-10-13T23:11:36.257Z,13.76
2022-10-13T23:14:04.982Z,13.78
2022-10-13T23:16:33.910Z,13.78
2022-10-13T23:19:02.477Z,13.78
2022-10-13T23:21:32.026Z,13.70
2022-10-13T23:24:02.487Z,13.74
2022-10-13T23:26:32.781Z,13.74
2022-10-13T23:29:01.678Z,13.68
2022-10-13T23:31:30.475Z,13.70
2022-10-13T23:33:59.679Z,13.70
2022-10-13T23:36:29.826Z,13.67
2022-10-13T23:38:59.737Z,13.64
2022-10-13T23:41:28.447Z,13.69
2022-10-13T23:43:58.490Z,13.66
2022-10-13T23:46:27.301Z,13.65
2022-10-13T23:48:55.435Z,13.63
2022-10-13T23:51:25.923Z,13.67
2022-10-13T23:53:54.553Z,13.67
2022-10-13T23:56:23.129Z,13.70
2022-10-13T23:58:51.977Z,13.70
